createdAt,value
2019-02-24T00:01:24.844Z,-3.30
2019-02-24T00:03:54.637Z,-3.30
2019-02-24T00:06:22.892Z,-3.20
2019-02-24T00:08:51.087Z,-3.20
2019-02-24T00:11:19.852Z,-3.20
2019-02-24T00:13:48.377Z,-3.10
2019-02-24T00:16:16.604Z,-3.10
2019-02-24T00:18:44.500Z,-3.10
2019-02-24T00:21:14.302Z,-3.30
2019-02-24T00:23:42.591Z,-3.30
2019-02-24T00:26:10.637Z,-3.40
2019-02-24T00:28:40.334Z,-3.60
2019-02-24T00:31:08.538Z,-3.90
2019-02-24T00:33:36.675Z,-3.90
2019-02-24T00:36:04.893Z,-3.90
2019-02-24T00:38:33.150Z,-3.90
2019-02-24T00:41:01.344Z,-3.90
2019-02-24T00:43:29.476Z,-3.90
2019-02-24T00:45:57.682Z,-4.00
2019-02-24T00:48:25.923Z,-3.90
2019-02-24T00:50:54.123Z,-3.90
2019-02-24T00:53:22.210Z,-3.80
2019-02-24T00:55:50.240Z,-3.80
2019-02-24T00:58:18.476Z,-3.80
2019-02-24T01:00:47.803Z,-3.70
2019-02-24T01:03:15.945Z,-3.70
2019-02-24T01:05:44.294Z,-3.60
2019-02-24T01:08:12.332Z,-3.50
2019-02-24T01:10:40.488Z,-3.50
2019-02-24T01:13:08.724Z,-3.40
2019-02-24T01:15:37.027Z,-3.50
2019-02-24T01:18:05.233Z,-3.50
2019-02-24T01:22:51.362Z,-3.50
2019-02-24T01:25:19.511Z,-3.70
2019-02-24T01:27:47.832Z,-3.70
2019-02-24T01:30:16.103Z,-3.80
2019-02-24T01:32:44.307Z,-3.90
2019-02-24T01:35:12.334Z,-3.80
2019-02-24T01:37:40.508Z,-3.90
2019-02-24T01:40:08.529Z,-3.80
2019-02-24T01:42:36.540Z,-3.80
2019-02-24T01:45:05.029Z,-3.70
2019-02-24T01:47:33.176Z,-3.70
2019-02-24T01:50:01.380Z,-3.70
2019-02-24T01:52:29.443Z,-3.60
2019-02-24T01:54:57.726Z,-3.70
2019-02-24T01:57:25.870Z,-3.80
2019-02-24T01:59:54.295Z,-3.80
2019-02-24T02:02:22.420Z,-3.90
2019-02-24T02:04:50.652Z,-4.00
2019-02-24T02:07:18.871Z,-4.10
2019-02-24T02:09:47.063Z,-4.10
2019-02-24T02:12:15.146Z,-4.10
2019-02-24T02:14:43.292Z,-4.20
2019-02-24T02:17:11.501Z,-4.20
2019-02-24T02:19:39.553Z,-4.30
2019-02-24T02:22:07.443Z,-4.30
2019-02-24T02:24:35.579Z,-4.30
2019-02-24T02:27:03.435Z,-4.40
2019-02-24T02:29:31.487Z,-4.40
2019-02-24T02:31:59.394Z,-4.40
2019-02-24T02:34:27.476Z,-4.40
2019-02-24T02:36:55.525Z,-4.50
2019-02-24T02:39:23.761Z,-4.40
2019-02-24T02:41:51.965Z,-4.50
2019-02-24T02:44:20.163Z,-4.60
2019-02-24T02:46:48.344Z,-4.60
2019-02-24T02:49:16.519Z,-4.60
2019-02-24T02:51:44.563Z,-4.70
2019-02-24T02:54:12.647Z,-4.70
2019-02-24T02:56:40.793Z,-4.70
2019-02-24T02:59:08.900Z,-4.60
2019-02-24T03:01:37.074Z,-4.60
2019-02-24T03:04:05.468Z,-4.50
2019-02-24T03:06:44.494Z,-4.50
2019-02-24T03:09:12.764Z,-4.50
2019-02-24T03:11:41.045Z,-4.50
2019-02-24T03:14:09.214Z,-4.60
2019-02-24T03:16:37.490Z,-4.70
2019-02-24T03:19:05.770Z,-4.60
2019-02-24T03:21:34.035Z,-4.60
2019-02-24T03:24:02.243Z,-4.60
2019-02-24T03:26:30.379Z,-4.70
2019-02-24T03:29:04.143Z,-4.60
2019-02-24T03:31:28.542Z,-4.60
2019-02-24T03:33:56.612Z,-4.70
2019-02-24T03:36:24.939Z,-4.70
2019-02-24T03:38:53.002Z,-4.80
2019-02-24T03:41:21.074Z,-4.80
2019-02-24T03:43:49.099Z,-4.80
2019-02-24T03:46:17.104Z,-4.80
2019-02-24T03:48:45.273Z,-4.80
2019-02-24T03:51:13.431Z,-4.70
2019-02-24T03:53:41.446Z,-4.80
2019-02-24T03:56:09.759Z,-4.90
2019-02-24T03:58:38.080Z,-5.00
2019-02-24T04:01:06.420Z,-5.00
2019-02-24T04:03:34.457Z,-5.10
2019-02-24T04:06:03.678Z,-5.10
2019-02-24T04:08:45.848Z,-5.10
2019-02-24T04:11:28.323Z,-5.10
2019-02-24T04:14:18.703Z,-5.00
2019-02-24T04:16:56.152Z,-5.00
2019-02-24T04:19:24.400Z,-5.00
2019-02-24T04:21:54.457Z,-5.00
2019-02-24T04:24:22.475Z,-5.00
2019-02-24T04:26:50.631Z,-5.10
2019-02-24T04:29:24.664Z,-5.10
2019-02-24T04:31:51.206Z,-5.20
2019-02-24T04:34:21.587Z,-5.10
2019-02-24T04:36:51.825Z,-5.10
2019-02-24T04:39:22.658Z,-5.10
2019-02-24T04:41:52.990Z,-5.10
2019-02-24T04:44:23.756Z,-5.10
2019-02-24T04:46:54.360Z,-5.00
2019-02-24T04:49:25.023Z,-5.10
2019-02-24T04:51:53.236Z,-5.00
2019-02-24T04:54:21.548Z,-5.00
2019-02-24T04:56:49.818Z,-5.10
2019-02-24T04:59:19.283Z,-5.20
2019-02-24T05:01:47.359Z,-5.30
2019-02-24T05:04:15.343Z,-5.30
2019-02-24T05:06:43.546Z,-5.20
2019-02-24T05:09:11.685Z,-5.20
2019-02-24T05:11:39.991Z,-5.20
2019-02-24T05:14:07.732Z,-5.20
2019-02-24T05:16:35.943Z,-5.30
2019-02-24T05:19:05.671Z,-5.30
2019-02-24T05:21:33.775Z,-5.40
2019-02-24T05:24:01.889Z,-5.30
2019-02-24T05:26:30.063Z,-5.20
2019-02-24T05:28:58.150Z,-5.20
2019-02-24T05:31:26.374Z,-5.00
2019-02-24T05:33:54.611Z,-5.00
2019-02-24T05:36:22.824Z,-5.00
2019-02-24T05:38:50.812Z,-5.00
2019-02-24T05:41:18.999Z,-5.00
2019-02-24T05:43:47.131Z,-5.10
2019-02-24T05:46:15.231Z,-5.10
2019-02-24T05:48:43.489Z,-5.10
2019-02-24T05:51:11.657Z,-5.00
2019-02-24T05:53:39.560Z,-5.10
2019-02-24T05:56:07.620Z,-5.00
2019-02-24T05:58:37.411Z,-5.10
2019-02-24T06:01:05.488Z,-5.10
2019-02-24T06:03:33.860Z,-5.10
2019-02-24T06:06:02.145Z,-5.10
2019-02-24T06:08:30.335Z,-5.10
2019-02-24T06:10:59.772Z,-5.10
2019-02-24T06:13:27.802Z,-5.10
2019-02-24T06:15:55.838Z,-5.20
2019-02-24T06:18:24.017Z,-5.10
2019-02-24T06:20:52.283Z,-5.10
2019-02-24T06:23:20.467Z,-5.00
2019-02-24T06:25:48.699Z,-4.90
2019-02-24T06:28:18.886Z,-4.90
2019-02-24T06:30:49.471Z,-4.80
2019-02-24T06:33:17.797Z,-4.80
2019-02-24T06:35:45.835Z,-4.70
2019-02-24T06:38:14.172Z,-4.50
2019-02-24T06:40:44.076Z,-4.40
2019-02-24T06:43:12.143Z,-4.10
2019-02-24T06:45:40.401Z,-4.00
2019-02-24T06:48:08.100Z,-3.90
2019-02-24T06:51:00.319Z,-3.80
2019-02-24T06:53:28.603Z,-3.70
2019-02-24T06:55:56.752Z,-3.60
2019-02-24T06:58:25.116Z,-3.60
2019-02-24T07:00:54.295Z,-3.40
2019-02-24T07:03:22.467Z,-3.30
2019-02-24T07:05:51.714Z,-3.20
2019-02-24T07:08:19.647Z,-3.20
2019-02-24T07:10:47.952Z,-3.10
2019-02-24T07:13:17.195Z,-3.00
2019-02-24T07:15:45.380Z,-2.90
2019-02-24T07:18:13.583Z,-2.90
2019-02-24T07:20:41.454Z,-2.80
2019-02-24T07:23:09.554Z,-2.70
2019-02-24T07:25:37.780Z,-2.60
2019-02-24T07:28:05.898Z,-2.50
2019-02-24T07:30:35.736Z,-2.40
2019-02-24T07:33:03.876Z,-2.30
2019-02-24T07:35:32.099Z,-2.20
2019-02-24T07:38:00.252Z,-2.10
2019-02-24T07:40:28.267Z,-1.90
2019-02-24T07:42:56.251Z,-1.80
2019-02-24T07:45:24.491Z,-1.70
2019-02-24T07:47:52.776Z,-1.70
2019-02-24T07:50:21.598Z,-1.70
2019-02-24T07:52:49.773Z,-1.70
2019-02-24T07:55:18.035Z,-1.60
2019-02-24T07:57:46.111Z,-1.50
2019-02-24T08:00:14.209Z,-1.40
2019-02-24T08:02:42.421Z,-1.30
2019-02-24T08:05:10.517Z,-1.10
2019-02-24T08:07:39.970Z,-0.90
2019-02-24T08:10:08.074Z,-0.90
2019-02-24T08:12:36.307Z,-0.70
2019-02-24T08:15:04.511Z,-0.60
2019-02-24T08:17:32.418Z,-0.40
2019-02-24T08:20:00.560Z,-0.30
2019-02-24T08:22:28.459Z,-0.20
2019-02-24T08:24:57.891Z,-0.10
2019-02-24T08:27:26.032Z,0.00
2019-02-24T08:29:54.092Z,0.10
2019-02-24T08:32:22.273Z,0.10
2019-02-24T08:34:50.323Z,0.10
2019-02-24T08:37:18.579Z,0.20
2019-02-24T08:39:46.596Z,0.30
2019-02-24T08:42:14.746Z,0.30
2019-02-24T08:44:45.448Z,0.40
2019-02-24T08:47:13.855Z,0.50
2019-02-24T08:49:42.463Z,0.60
2019-02-24T08:52:10.748Z,0.80
2019-02-24T08:54:38.894Z,1.00
2019-02-24T08:57:07.266Z,1.30
2019-02-24T08:59:35.457Z,1.30
2019-02-24T09:02:03.775Z,1.40
2019-02-24T09:04:32.018Z,1.40
2019-02-24T09:07:01.450Z,1.40
2019-02-24T09:09:29.660Z,1.20
2019-02-24T09:11:57.651Z,1.10
2019-02-24T09:14:25.827Z,1.30
2019-02-24T09:16:54.115Z,1.50
2019-02-24T09:19:22.399Z,1.70
2019-02-24T09:21:50.777Z,1.80
2019-02-24T09:24:19.004Z,1.80
2019-02-24T09:26:47.399Z,1.90
2019-02-24T09:29:16.375Z,2.00
2019-02-24T09:31:45.551Z,2.20
2019-02-24T09:34:15.741Z,2.20
2019-02-24T09:36:44.258Z,2.30
2019-02-24T09:39:14.677Z,2.50
2019-02-24T09:41:42.887Z,2.80
2019-02-24T09:44:12.733Z,2.50
2019-02-24T09:46:41.906Z,2.50
2019-02-24T09:49:24.514Z,2.70
2019-02-24T09:51:52.968Z,2.90
2019-02-24T09:54:35.020Z,3.00
2019-02-24T09:57:05.665Z,3.40
2019-02-24T09:59:33.813Z,3.60
2019-02-24T10:02:01.860Z,3.80
2019-02-24T10:04:30.133Z,4.10
2019-02-24T10:06:58.505Z,4.50
2019-02-24T10:09:26.695Z,4.10
2019-02-24T10:11:54.871Z,4.10
2019-02-24T10:14:23.142Z,4.30
2019-02-24T10:16:51.417Z,4.70
2019-02-24T10:19:19.520Z,5.10
2019-02-24T10:21:47.868Z,4.90
2019-02-24T10:24:15.851Z,5.50
2019-02-24T10:26:44.011Z,5.70
2019-02-24T10:29:12.208Z,5.70
2019-02-24T10:31:40.343Z,5.60
2019-02-24T10:34:08.449Z,5.50
2019-02-24T10:36:36.550Z,5.50
2019-02-24T10:39:06.455Z,5.50
2019-02-24T10:41:34.671Z,5.70
2019-02-24T10:44:02.988Z,5.70
2019-02-24T10:46:31.248Z,5.70
2019-02-24T10:49:03.310Z,5.70
2019-02-24T10:51:29.317Z,5.70
2019-02-24T10:53:57.440Z,5.80
2019-02-24T10:56:25.652Z,5.70
2019-02-24T10:58:53.859Z,5.80
2019-02-24T11:01:29.305Z,5.90
2019-02-24T11:03:53.805Z,6.10
2019-02-24T11:06:22.034Z,6.00
2019-02-24T11:08:50.771Z,5.80
2019-02-24T11:11:18.995Z,5.70
2019-02-24T11:13:47.248Z,5.90
2019-02-24T11:16:15.671Z,5.90
2019-02-24T11:18:43.654Z,5.90
2019-02-24T11:21:11.732Z,5.90
2019-02-24T11:23:39.871Z,5.90
2019-02-24T11:26:08.216Z,6.10
2019-02-24T11:28:36.491Z,6.10
2019-02-24T11:31:04.937Z,6.10
2019-02-24T11:33:33.184Z,6.40
2019-02-24T11:36:01.497Z,6.40
2019-02-24T11:38:29.376Z,6.40
2019-02-24T11:40:57.547Z,6.00
2019-02-24T11:43:25.565Z,5.90
2019-02-24T11:45:54.234Z,5.90
2019-02-24T11:48:22.496Z,5.90
2019-02-24T11:50:52.392Z,6.10
2019-02-24T11:53:20.659Z,6.00
2019-02-24T11:55:48.774Z,6.20
2019-02-24T11:58:16.801Z,6.30
2019-02-24T12:00:44.916Z,6.30
2019-02-24T12:03:13.148Z,6.00
2019-02-24T12:05:41.275Z,5.90
2019-02-24T12:08:09.335Z,6.20
2019-02-24T12:10:37.641Z,6.10
2019-02-24T12:13:05.864Z,6.20
2019-02-24T12:15:35.119Z,6.20
2019-02-24T12:18:04.138Z,6.30
2019-02-24T12:20:32.721Z,6.40
2019-02-24T12:23:00.913Z,6.60
2019-02-24T12:25:30.879Z,6.70
2019-02-24T12:28:01.148Z,6.70
2019-02-24T12:30:29.320Z,6.60
2019-02-24T12:32:58.016Z,6.60
2019-02-24T12:35:26.139Z,6.50
2019-02-24T12:37:54.309Z,6.10
2019-02-24T12:40:22.705Z,6.30
2019-02-24T12:42:50.741Z,6.60
2019-02-24T12:45:18.947Z,6.50
2019-02-24T12:47:47.181Z,6.80
2019-02-24T12:50:15.489Z,6.80
2019-02-24T12:52:43.843Z,6.70
2019-02-24T12:55:12.324Z,6.50
2019-02-24T12:57:40.748Z,6.40
2019-02-24T13:00:13.181Z,6.40
2019-02-24T13:02:41.204Z,6.30
2019-02-24T13:05:09.234Z,6.50
2019-02-24T13:07:37.326Z,6.40
2019-02-24T13:10:06.912Z,6.50
2019-02-24T13:12:35.064Z,6.50
2019-02-24T13:15:03.506Z,6.40
2019-02-24T13:17:31.806Z,6.40
2019-02-24T13:20:00.024Z,6.60
2019-02-24T13:22:28.117Z,6.80
2019-02-24T13:24:56.374Z,6.80
2019-02-24T13:27:24.307Z,6.70
2019-02-24T13:29:52.622Z,6.50
2019-02-24T13:32:20.845Z,6.40
2019-02-24T13:34:48.956Z,6.10
2019-02-24T13:37:17.134Z,5.80
2019-02-24T13:39:45.179Z,5.60
2019-02-24T13:42:13.359Z,5.50
2019-02-24T13:44:41.665Z,5.30
2019-02-24T13:47:09.696Z,5.70
2019-02-24T13:49:38.000Z,5.80
2019-02-24T13:52:06.253Z,6.10
2019-02-24T13:54:34.647Z,6.50
2019-02-24T13:57:02.800Z,6.50
2019-02-24T13:59:30.914Z,6.10
2019-02-24T14:01:58.936Z,6.00
2019-02-24T14:04:27.104Z,5.80
2019-02-24T14:06:55.343Z,5.60
2019-02-24T14:09:23.451Z,5.40
2019-02-24T14:12:13.190Z,5.20
2019-02-24T14:14:48.992Z,5.00
2019-02-24T14:17:18.177Z,4.90
2019-02-24T14:19:53.935Z,4.80
2019-02-24T14:22:30.875Z,5.00
2019-02-24T14:25:10.477Z,5.20
2019-02-24T14:27:43.331Z,5.20
2019-02-24T14:30:16.453Z,5.20
2019-02-24T14:32:49.005Z,5.10
2019-02-24T14:35:18.361Z,5.00
2019-02-24T14:37:47.303Z,5.00
2019-02-24T14:40:16.975Z,5.00
2019-02-24T14:42:47.351Z,5.00
2019-02-24T14:45:22.707Z,5.00
2019-02-24T14:47:55.544Z,5.00
2019-02-24T14:50:39.963Z,5.10
2019-02-24T14:53:14.505Z,5.20
2019-02-24T14:55:50.803Z,5.20
2019-02-24T14:58:27.427Z,5.30
2019-02-24T15:01:00.655Z,5.40
2019-02-24T15:03:40.045Z,5.40
2019-02-24T15:06:12.716Z,5.30
2019-02-24T15:08:41.664Z,5.30
2019-02-24T15:11:11.695Z,5.30
2019-02-24T15:13:44.211Z,5.30
2019-02-24T15:16:14.815Z,5.40
2019-02-24T15:18:43.529Z,5.40
2019-02-24T15:21:11.560Z,5.40
2019-02-24T15:23:42.295Z,5.40
2019-02-24T15:26:13.342Z,5.30
2019-02-24T15:28:44.829Z,5.30
2019-02-24T15:31:12.943Z,5.30
2019-02-24T15:33:40.952Z,5.20
2019-02-24T15:36:09.088Z,5.20
2019-02-24T15:38:37.595Z,5.20
2019-02-24T15:41:08.047Z,5.20
2019-02-24T15:43:36.008Z,5.20
2019-02-24T15:46:04.931Z,5.10
2019-02-24T15:48:34.061Z,5.10
2019-02-24T15:51:02.232Z,5.20
2019-02-24T15:53:30.524Z,5.10
2019-02-24T15:55:59.382Z,5.00
2019-02-24T15:58:27.692Z,5.00
2019-02-24T16:00:56.152Z,5.00
2019-02-24T16:03:24.319Z,4.90
2019-02-24T16:05:52.543Z,4.80
2019-02-24T16:08:21.276Z,4.80
2019-02-24T16:10:49.575Z,4.80
2019-02-24T16:13:18.876Z,4.70
2019-02-24T16:15:47.071Z,4.60
2019-02-24T16:18:15.415Z,4.60
2019-02-24T16:20:43.506Z,4.50
2019-02-24T16:23:11.720Z,4.40
2019-02-24T16:25:39.814Z,4.20
2019-02-24T16:28:10.167Z,4.20
2019-02-24T16:30:41.719Z,4.10
2019-02-24T16:33:12.569Z,4.10
2019-02-24T16:35:42.932Z,3.90
2019-02-24T16:38:13.755Z,3.90
2019-02-24T16:40:44.360Z,3.60
2019-02-24T16:43:15.087Z,3.70
2019-02-24T16:45:45.421Z,3.40
2019-02-24T16:48:15.855Z,3.30
2019-02-24T16:50:46.250Z,3.20
2019-02-24T16:53:16.840Z,3.10
2019-02-24T16:55:47.742Z,3.00
2019-02-24T16:58:18.016Z,2.90
2019-02-24T17:00:51.263Z,2.90
2019-02-24T17:03:20.667Z,2.80
2019-02-24T17:05:50.164Z,2.60
2019-02-24T17:08:18.303Z,2.60
2019-02-24T17:10:48.423Z,2.40
2019-02-24T17:13:16.487Z,2.40
2019-02-24T17:15:43.878Z,2.40
2019-02-24T17:18:12.010Z,2.50
2019-02-24T17:20:40.012Z,2.50
2019-02-24T17:23:08.463Z,2.40
2019-02-24T17:25:35.763Z,2.40
2019-02-24T17:28:03.875Z,2.30
2019-02-24T17:30:32.785Z,2.20
2019-02-24T17:33:01.365Z,2.20
2019-02-24T17:35:30.487Z,2.20
2019-02-24T17:37:58.519Z,2.20
2019-02-24T17:40:27.943Z,2.40
2019-02-24T17:42:55.891Z,2.50
2019-02-24T17:45:23.403Z,2.40
2019-02-24T17:47:50.850Z,2.20
2019-02-24T17:50:18.310Z,2.00
2019-02-24T17:52:45.731Z,1.90
2019-02-24T17:55:13.357Z,1.70
2019-02-24T17:57:40.843Z,1.60
2019-02-24T18:00:12.354Z,1.50
2019-02-24T18:02:40.099Z,1.70
2019-02-24T18:05:11.667Z,1.70
2019-02-24T18:07:40.611Z,1.70
2019-02-24T18:10:10.189Z,1.60
2019-02-24T18:12:39.694Z,1.60
2019-02-24T18:15:09.904Z,1.60
2019-02-24T18:17:39.067Z,1.60
2019-02-24T18:20:07.675Z,1.60
2019-02-24T18:22:35.440Z,1.60
2019-02-24T18:25:03.749Z,1.70
2019-02-24T18:27:31.730Z,1.60
2019-02-24T18:30:01.394Z,1.60
2019-02-24T18:32:32.070Z,1.60
2019-02-24T18:35:00.868Z,1.60
2019-02-24T18:37:28.548Z,1.60
2019-02-24T18:39:58.020Z,1.40
2019-02-24T18:42:27.518Z,1.50
2019-02-24T18:44:56.971Z,1.50
2019-02-24T18:47:26.941Z,1.70
2019-02-24T18:49:54.397Z,1.70
2019-02-24T18:52:21.979Z,1.50
2019-02-24T18:54:51.412Z,1.40
2019-02-24T18:57:23.147Z,1.40
2019-02-24T18:59:51.348Z,1.30
2019-02-24T19:02:18.679Z,1.20
2019-02-24T19:04:46.296Z,1.20
2019-02-24T19:07:16.258Z,1.10
2019-02-24T19:09:44.391Z,1.10
2019-02-24T19:12:12.979Z,1.10
2019-02-24T19:14:40.255Z,1.00
2019-02-24T19:17:07.666Z,1.00
2019-02-24T19:19:35.344Z,0.90
2019-02-24T19:22:03.072Z,0.90
2019-02-24T19:24:31.542Z,0.90
2019-02-24T19:26:59.075Z,1.00
2019-02-24T19:29:26.399Z,0.90
2019-02-24T19:31:54.114Z,0.90
2019-02-24T19:34:21.420Z,0.90
2019-02-24T19:36:48.795Z,1.00
2019-02-24T19:39:16.057Z,1.00
2019-02-24T19:41:43.226Z,1.00
2019-02-24T19:44:12.246Z,1.10
2019-02-24T19:46:42.284Z,1.00
2019-02-24T19:49:09.676Z,1.00
2019-02-24T19:51:37.223Z,0.90
2019-02-24T19:54:04.494Z,0.90
2019-02-24T19:56:32.049Z,0.90
2019-02-24T19:59:04.010Z,1.00
2019-02-24T20:01:32.078Z,0.90
2019-02-24T20:03:59.800Z,1.00
2019-02-24T20:06:38.887Z,1.00
2019-02-24T20:09:10.421Z,0.90
2019-02-24T20:11:37.772Z,0.80
2019-02-24T20:14:05.197Z,0.80
2019-02-24T20:16:33.048Z,0.70
2019-02-24T20:19:02.112Z,0.70
2019-02-24T20:21:29.547Z,0.70
2019-02-24T20:23:56.959Z,0.70
2019-02-24T20:26:24.345Z,0.50
2019-02-24T20:28:53.367Z,0.40
2019-02-24T20:31:21.097Z,0.40
2019-02-24T20:33:51.230Z,0.40
2019-02-24T20:36:18.468Z,0.30
2019-02-24T20:38:46.839Z,0.20
2019-02-24T20:41:14.233Z,0.00
2019-02-24T20:43:44.043Z,0.00
2019-02-24T20:46:11.485Z,0.00
2019-02-24T20:48:39.065Z,0.00
2019-02-24T20:51:06.804Z,-0.10
2019-02-24T20:53:34.221Z,-0.10
2019-02-24T20:56:01.623Z,-0.20
2019-02-24T20:58:28.872Z,-0.30
2019-02-24T21:00:56.219Z,-0.40
2019-02-24T21:03:23.564Z,-0.50
2019-02-24T21:05:53.120Z,-0.60
2019-02-24T21:08:20.600Z,-0.70
2019-02-24T21:10:49.659Z,-0.80
2019-02-24T21:13:17.087Z,-1.00
2019-02-24T21:15:44.765Z,-1.00
2019-02-24T21:18:14.059Z,-0.90
2019-02-24T21:20:41.400Z,-0.90
2019-02-24T21:23:08.915Z,-0.90
2019-02-24T21:25:37.591Z,-0.90
2019-02-24T21:28:04.937Z,-0.90
2019-02-24T21:30:33.983Z,-0.90
2019-02-24T21:33:01.349Z,-0.90
2019-02-24T21:35:28.775Z,-1.10
2019-02-24T21:37:56.175Z,-1.20
2019-02-24T21:40:23.799Z,-1.20
2019-02-24T21:42:51.242Z,-1.40
2019-02-24T21:45:18.739Z,-1.70
2019-02-24T21:47:46.063Z,-1.70
2019-02-24T21:50:13.961Z,-1.70
2019-02-24T21:52:42.986Z,-1.80
2019-02-24T21:55:30.372Z,-2.00
2019-02-24T21:58:00.170Z,-2.10
2019-02-24T22:00:28.568Z,-2.10
2019-02-24T22:02:56.599Z,-2.20
2019-02-24T22:05:24.707Z,-2.20
2019-02-24T22:07:52.980Z,-2.20
2019-02-24T22:10:21.118Z,-2.30
2019-02-24T22:12:50.989Z,-2.20
2019-02-24T22:15:19.226Z,-2.10
2019-02-24T22:17:47.220Z,-2.00
2019-02-24T22:20:15.659Z,-1.90
2019-02-24T22:22:43.956Z,-2.00
2019-02-24T22:25:12.414Z,-2.00
2019-02-24T22:27:40.939Z,-1.90
2019-02-24T22:30:12.057Z,-1.90
2019-02-24T22:32:40.583Z,-1.80
2019-02-24T22:35:09.825Z,-1.90
2019-02-24T22:37:38.004Z,-2.00
2019-02-24T22:40:08.035Z,-1.90
2019-02-24T22:42:37.571Z,-1.70
2019-02-24T22:45:08.499Z,-1.70
2019-02-24T22:47:37.845Z,-1.60
2019-02-24T22:50:06.444Z,-1.60
2019-02-24T22:52:34.857Z,-1.50
2019-02-24T22:55:03.408Z,-1.60
2019-02-24T22:57:31.915Z,-1.70
2019-02-24T23:00:01.706Z,-1.90
2019-02-24T23:02:30.206Z,-2.00
2019-02-24T23:04:58.349Z,-2.10
2019-02-24T23:07:26.635Z,-2.10
2019-02-24T23:09:54.785Z,-2.00
2019-02-24T23:12:23.171Z,-2.00
2019-02-24T23:14:51.664Z,-1.90
2019-02-24T23:17:19.943Z,-2.00
2019-02-24T23:19:49.841Z,-2.00
2019-02-24T23:22:18.127Z,-2.00
2019-02-24T23:24:46.013Z,-2.00
2019-02-24T23:27:14.353Z,-1.90
2019-02-24T23:29:42.555Z,-2.00
2019-02-24T23:32:10.559Z,-2.00
2019-02-24T23:34:38.796Z,-2.10
2019-02-24T23:37:06.939Z,-2.20
2019-02-24T23:39:34.924Z,-2.30
2019-02-24T23:42:03.259Z,-2.50
2019-02-24T23:44:31.365Z,-2.60
2019-02-24T23:46:59.663Z,-2.70
2019-02-24T23:49:27.750Z,-2.80
2019-02-24T23:51:55.882Z,-2.80
2019-02-24T23:54:24.190Z,-2.70
2019-02-24T23:56:52.535Z,-2.60
2019-02-24T23:59:20.755Z,-2.70
